sensor_id;sensor_type;location;lat;lon;timestamp;temperature;humidity
34891;DHT22;21103;51.358;12.412;2022-09-09T00:02:19;17.10;99.90
34891;DHT22;21103;51.358;12.412;2022-09-09T00:04:59;17.10;99.90
34891;DHT22;21103;51.358;12.412;2022-09-09T00:07:48;17.10;99.90
34891;DHT22;21103;51.358;12.412;2022-09-09T00:10:33;17.10;99.90
34891;DHT22;21103;51.358;12.412;2022-09-09T00:13:32;17.10;99.90
34891;DHT22;21103;51.358;12.412;2022-09-09T00:21:14;17.00;99.90
34891;DHT22;21103;51.358;12.412;2022-09-09T00:23:51;17.00;99.90
34891;DHT22;21103;51.358;12.412;2022-09-09T00:26:42;17.00;99.90
34891;DHT22;21103;51.358;12.412;2022-09-09T00:30:03;16.90;99.90
34891;DHT22;21103;51.358;12.412;2022-09-09T00:32:15;16.90;99.90
34891;DHT22;21103;51.358;12.412;2022-09-09T00:35:14;16.90;99.90
34891;DHT22;21103;51.358;12.412;2022-09-09T00:37:42;16.90;99.90
34891;DHT22;21103;51.358;12.412;2022-09-09T00:40:22;16.90;99.90
34891;DHT22;21103;51.358;12.412;2022-09-09T00:42:54;16.90;99.90
34891;DHT22;21103;51.358;12.412;2022-09-09T00:48:24;16.80;99.90
34891;DHT22;21103;51.358;12.412;2022-09-09T00:51:03;16.80;99.90
34891;DHT22;21103;51.358;12.412;2022-09-09T00:53:39;16.80;99.90
34891;DHT22;21103;51.358;12.412;2022-09-09T00:56:18;16.80;99.90
34891;DHT22;21103;51.358;12.412;2022-09-09T00:59:04;16.70;99.90
34891;DHT22;21103;51.358;12.412;2022-09-09T01:01:32;16.80;99.90
34891;DHT22;21103;51.358;12.412;2022-09-09T01:03:57;16.70;99.90
34891;DHT22;21103;51.358;12.412;2022-09-09T01:06:36;16.70;99.90
34891;DHT22;21103;51.358;12.412;2022-09-09T01:09:32;16.70;99.90
34891;DHT22;21103;51.358;12.412;2022-09-09T01:12:12;16.70;99.90
34891;DHT22;21103;51.358;12.412;2022-09-09T01:17:26;16.60;99.90
34891;DHT22;21103;51.358;12.412;2022-09-09T01:20:05;16.60;99.90
34891;DHT22;21103;51.358;12.412;2022-09-09T01:23:06;16.60;99.90
34891;DHT22;21103;51.358;12.412;2022-09-09T01:28:40;16.60;99.90
34891;DHT22;21103;51.358;12.412;2022-09-09T01:31:09;16.70;99.90
34891;DHT22;21103;51.358;12.412;2022-09-09T01:33:36;16.70;99.90
34891;DHT22;21103;51.358;12.412;2022-09-09T01:36:10;16.80;99.90
34891;DHT22;21103;51.358;12.412;2022-09-09T01:38:38;16.80;99.90
34891;DHT22;21103;51.358;12.412;2022-09-09T01:41:04;16.80;99.90
34891;DHT22;21103;51.358;12.412;2022-09-09T01:43:30;16.70;99.90
34891;DHT22;21103;51.358;12.412;2022-09-09T01:45:58;16.80;99.90
34891;DHT22;21103;51.358;12.412;2022-09-09T01:48:25;16.70;99.90
34891;DHT22;21103;51.358;12.412;2022-09-09T01:50:51;16.70;99.90
34891;DHT22;21103;51.358;12.412;2022-09-09T01:53:18;16.70;99.90
34891;DHT22;21103;51.358;12.412;2022-09-09T01:55:55;16.70;99.90
34891;DHT22;21103;51.358;12.412;2022-09-09T01:58:26;16.70;99.90
34891;DHT22;21103;51.358;12.412;2022-09-09T02:01:22;16.60;99.90
34891;DHT22;21103;51.358;12.412;2022-09-09T02:03:53;16.70;99.90
34891;DHT22;21103;51.358;12.412;2022-09-09T02:06:30;16.70;99.90
34891;DHT22;21103;51.358;12.412;2022-09-09T02:08:58;16.70;99.90
34891;DHT22;21103;51.358;12.412;2022-09-09T02:11:27;16.70;99.90
34891;DHT22;21103;51.358;12.412;2022-09-09T02:13:56;16.70;99.90
34891;DHT22;21103;51.358;12.412;2022-09-09T02:16:39;16.60;99.90
34891;DHT22;21103;51.358;12.412;2022-09-09T02:19:09;16.60;99.90
34891;DHT22;21103;51.358;12.412;2022-09-09T02:21:40;16.60;99.90
34891;DHT22;21103;51.358;12.412;2022-09-09T02:24:08;16.60;99.90
34891;DHT22;21103;51.358;12.412;2022-09-09T02:26:39;16.60;99.90
34891;DHT22;21103;51.358;12.412;2022-09-09T02:29:17;16.60;99.90
34891;DHT22;21103;51.358;12.412;2022-09-09T02:31:45;16.60;99.90
34891;DHT22;21103;51.358;12.412;2022-09-09T02:34:13;16.50;99.90
34891;DHT22;21103;51.358;12.412;2022-09-09T02:36:42;16.50;99.90
34891;DHT22;21103;51.358;12.412;2022-09-09T02:39:10;16.40;99.90
34891;DHT22;21103;51.358;12.412;2022-09-09T02:41:39;16.40;99.90
34891;DHT22;21103;51.358;12.412;2022-09-09T02:44:12;16.40;99.90
34891;DHT22;21103;51.358;12.412;2022-09-09T02:47:56;16.40;99.90
34891;DHT22;21103;51.358;12.412;2022-09-09T02:50:16;16.40;99.90
34891;DHT22;21103;51.358;12.412;2022-09-09T02:55:39;16.40;99.90
34891;DHT22;21103;51.358;12.412;2022-09-09T02:58:10;16.30;99.90
34891;DHT22;21103;51.358;12.412;2022-09-09T03:00:38;16.40;99.90
34891;DHT22;21103;51.358;12.412;2022-09-09T03:03:06;16.40;99.90
34891;DHT22;21103;51.358;12.412;2022-09-09T03:05:31;16.30;99.90
34891;DHT22;21103;51.358;12.412;2022-09-09T03:07:58;16.30;99.90
34891;DHT22;21103;51.358;12.412;2022-09-09T03:10:23;16.20;99.90
34891;DHT22;21103;51.358;12.412;2022-09-09T03:12:49;16.30;99.90
34891;DHT22;21103;51.358;12.412;2022-09-09T03:15:15;16.30;99.90
34891;DHT22;21103;51.358;12.412;2022-09-09T03:17:42;16.30;99.90
34891;DHT22;21103;51.358;12.412;2022-09-09T03:20:07;16.20;99.90
34891;DHT22;21103;51.358;12.412;2022-09-09T03:22:34;16.20;99.90
34891;DHT22;21103;51.358;12.412;2022-09-09T03:25:00;16.20;99.90
34891;DHT22;21103;51.358;12.412;2022-09-09T03:27:26;16.30;99.90
34891;DHT22;21103;51.358;12.412;2022-09-09T03:29:52;16.30;99.90
34891;DHT22;21103;51.358;12.412;2022-09-09T03:32:18;16.20;99.90
34891;DHT22;21103;51.358;12.412;2022-09-09T03:34:44;16.20;99.90
34891;DHT22;21103;51.358;12.412;2022-09-09T03:37:10;16.30;99.90
34891;DHT22;21103;51.358;12.412;2022-09-09T03:39:35;16.30;99.90
34891;DHT22;21103;51.358;12.412;2022-09-09T03:42:01;16.30;99.90
34891;DHT22;21103;51.358;12.412;2022-09-09T03:44:30;16.30;99.90
34891;DHT22;21103;51.358;12.412;2022-09-09T03:46:55;16.20;99.90
34891;DHT22;21103;51.358;12.412;2022-09-09T03:49:21;16.20;99.90
34891;DHT22;21103;51.358;12.412;2022-09-09T03:51:48;16.30;99.90
34891;DHT22;21103;51.358;12.412;2022-09-09T03:54:13;16.30;99.90
34891;DHT22;21103;51.358;12.412;2022-09-09T03:56:38;16.30;99.90
34891;DHT22;21103;51.358;12.412;2022-09-09T03:59:06;16.20;99.90
34891;DHT22;21103;51.358;12.412;2022-09-09T04:01:34;16.30;99.90
34891;DHT22;21103;51.358;12.412;2022-09-09T04:03:59;16.30;99.90
34891;DHT22;21103;51.358;12.412;2022-09-09T04:06:26;16.20;99.90
34891;DHT22;21103;51.358;12.412;2022-09-09T04:08:52;16.20;99.90
34891;DHT22;21103;51.358;12.412;2022-09-09T04:11:17;16.20;99.90
34891;DHT22;21103;51.358;12.412;2022-09-09T04:13:43;16.20;99.90
34891;DHT22;21103;51.358;12.412;2022-09-09T04:16:10;16.20;99.90
34891;DHT22;21103;51.358;12.412;2022-09-09T04:18:36;16.20;99.90
34891;DHT22;21103;51.358;12.412;2022-09-09T04:21:02;16.20;99.90
34891;DHT22;21103;51.358;12.412;2022-09-09T04:23:29;16.20;99.90
34891;DHT22;21103;51.358;12.412;2022-09-09T04:25:56;16.20;99.90
34891;DHT22;21103;51.358;12.412;2022-09-09T04:28:24;16.20;99.90
34891;DHT22;21103;51.358;12.412;2022-09-09T04:30:50;16.20;99.90
34891;DHT22;21103;51.358;12.412;2022-09-09T04:33:15;16.20;99.90
34891;DHT22;21103;51.358;12.412;2022-09-09T04:35:47;16.20;99.90
34891;DHT22;21103;51.358;12.412;2022-09-09T04:38:13;16.30;99.90
34891;DHT22;21103;51.358;12.412;2022-09-09T04:40:42;16.30;99.90
34891;DHT22;21103;51.358;12.412;2022-09-09T04:43:08;16.30;99.90
34891;DHT22;21103;51.358;12.412;2022-09-09T04:45:34;16.30;99.90
34891;DHT22;21103;51.358;12.412;2022-09-09T04:47:59;16.40;99.90
34891;DHT22;21103;51.358;12.412;2022-09-09T04:50:25;16.40;99.90
34891;DHT22;21103;51.358;12.412;2022-09-09T04:52:50;16.40;99.90
34891;DHT22;21103;51.358;12.412;2022-09-09T04:55:16;16.40;99.90
34891;DHT22;21103;51.358;12.412;2022-09-09T04:57:41;16.50;99.90
34891;DHT22;21103;51.358;12.412;2022-09-09T05:00:08;16.40;99.90
34891;DHT22;21103;51.358;12.412;2022-09-09T05:02:38;16.50;99.90
34891;DHT22;21103;51.358;12.412;2022-09-09T05:05:04;16.50;99.90
34891;DHT22;21103;51.358;12.412;2022-09-09T05:07:30;16.50;99.90
34891;DHT22;21103;51.358;12.412;2022-09-09T05:09:56;16.60;99.90
34891;DHT22;21103;51.358;12.412;2022-09-09T05:12:22;16.50;99.90
34891;DHT22;21103;51.358;12.412;2022-09-09T05:14:48;16.50;99.90
34891;DHT22;21103;51.358;12.412;2022-09-09T05:17:14;16.60;99.90
34891;DHT22;21103;51.358;12.412;2022-09-09T05:19:40;16.60;99.90
34891;DHT22;21103;51.358;12.412;2022-09-09T05:22:05;16.70;99.90
34891;DHT22;21103;51.358;12.412;2022-09-09T05:24:31;16.70;99.90
34891;DHT22;21103;51.358;12.412;2022-09-09T05:26:58;16.70;99.90
34891;DHT22;21103;51.358;12.412;2022-09-09T05:29:25;16.80;99.90
34891;DHT22;21103;51.358;12.412;2022-09-09T05:31:51;16.90;99.90
34891;DHT22;21103;51.358;12.412;2022-09-09T05:34:17;16.90;99.90
34891;DHT22;21103;51.358;12.412;2022-09-09T05:36:42;17.00;99.90
34891;DHT22;21103;51.358;12.412;2022-09-09T05:39:08;17.10;99.90
34891;DHT22;21103;51.358;12.412;2022-09-09T05:41:34;17.10;99.90
34891;DHT22;21103;51.358;12.412;2022-09-09T05:44:00;17.20;99.90
34891;DHT22;21103;51.358;12.412;2022-09-09T05:46:26;17.20;99.90
34891;DHT22;21103;51.358;12.412;2022-09-09T05:48:53;17.30;99.90
34891;DHT22;21103;51.358;12.412;2022-09-09T05:51:23;17.30;99.90
34891;DHT22;21103;51.358;12.412;2022-09-09T05:53:50;17.40;99.90
34891;DHT22;21103;51.358;12.412;2022-09-09T05:56:21;17.50;99.90
34891;DHT22;21103;51.358;12.412;2022-09-09T05:58:48;17.50;99.80
34891;DHT22;21103;51.358;12.412;2022-09-09T06:01:19;17.60;99.80
34891;DHT22;21103;51.358;12.412;2022-09-09T06:03:46;17.60;99.90
34891;DHT22;21103;51.358;12.412;2022-09-09T06:06:17;17.70;99.80
34891;DHT22;21103;51.358;12.412;2022-09-09T06:08:44;17.70;99.60
34891;DHT22;21103;51.358;12.412;2022-09-09T06:11:22;17.80;99.60
34891;DHT22;21103;51.358;12.412;2022-09-09T06:13:49;17.80;99.30
34891;DHT22;21103;51.358;12.412;2022-09-09T06:16:18;17.90;99.30
34891;DHT22;21103;51.358;12.412;2022-09-09T06:18:44;17.90;99.30
34891;DHT22;21103;51.358;12.412;2022-09-09T06:21:18;18.00;99.50
34891;DHT22;21103;51.358;12.412;2022-09-09T06:23:45;18.00;99.10
34891;DHT22;21103;51.358;12.412;2022-09-09T06:26:13;18.00;99.30
34891;DHT22;21103;51.358;12.412;2022-09-09T06:28:40;18.10;99.20
34891;DHT22;21103;51.358;12.412;2022-09-09T06:31:09;18.10;99.30
34891;DHT22;21103;51.358;12.412;2022-09-09T06:33:37;18.20;99.30
34891;DHT22;21103;51.358;12.412;2022-09-09T06:36:04;18.30;99.40
34891;DHT22;21103;51.358;12.412;2022-09-09T06:38:30;18.30;99.40
34891;DHT22;21103;51.358;12.412;2022-09-09T06:40:58;18.40;99.10
34891;DHT22;21103;51.358;12.412;2022-09-09T06:43:25;18.40;99.40
34891;DHT22;21103;51.358;12.412;2022-09-09T06:45:55;18.50;99.20
34891;DHT22;21103;51.358;12.412;2022-09-09T06:48:21;18.50;99.00
34891;DHT22;21103;51.358;12.412;2022-09-09T06:50:47;18.60;99.10
34891;DHT22;21103;51.358;12.412;2022-09-09T06:53:12;18.60;99.00
34891;DHT22;21103;51.358;12.412;2022-09-09T06:55:41;18.70;99.00
34891;DHT22;21103;51.358;12.412;2022-09-09T06:58:09;18.70;99.00
34891;DHT22;21103;51.358;12.412;2022-09-09T07:00:35;18.80;98.80
34891;DHT22;21103;51.358;12.412;2022-09-09T07:03:03;18.90;99.00
34891;DHT22;21103;51.358;12.412;2022-09-09T07:05:28;19.00;98.70
34891;DHT22;21103;51.358;12.412;2022-09-09T07:07:54;19.00;98.20
34891;DHT22;21103;51.358;12.412;2022-09-09T07:10:19;19.10;98.50
34891;DHT22;21103;51.358;12.412;2022-09-09T07:12:50;19.10;97.90
34891;DHT22;21103;51.358;12.412;2022-09-09T07:15:17;19.20;98.10
34891;DHT22;21103;51.358;12.412;2022-09-09T07:17:44;19.30;97.80
34891;DHT22;21103;51.358;12.412;2022-09-09T07:20:10;19.20;97.60
34891;DHT22;21103;51.358;12.412;2022-09-09T07:22:35;19.30;97.50
34891;DHT22;21103;51.358;12.412;2022-09-09T07:25:00;19.30;97.50
34891;DHT22;21103;51.358;12.412;2022-09-09T07:27:27;19.40;97.60
34891;DHT22;21103;51.358;12.412;2022-09-09T07:29:53;19.50;97.40
34891;DHT22;21103;51.358;12.412;2022-09-09T07:32:19;19.60;97.30
34891;DHT22;21103;51.358;12.412;2022-09-09T07:34:45;19.60;97.10
34891;DHT22;21103;51.358;12.412;2022-09-09T07:37:12;19.60;97.10
34891;DHT22;21103;51.358;12.412;2022-09-09T07:39:39;19.70;97.00
34891;DHT22;21103;51.358;12.412;2022-09-09T07:42:05;19.70;97.00
34891;DHT22;21103;51.358;12.412;2022-09-09T07:44:31;19.70;96.90
34891;DHT22;21103;51.358;12.412;2022-09-09T07:47:00;19.80;97.30
34891;DHT22;21103;51.358;12.412;2022-09-09T07:49:25;19.80;97.20
34891;DHT22;21103;51.358;12.412;2022-09-09T07:51:51;19.80;97.20
34891;DHT22;21103;51.358;12.412;2022-09-09T07:54:18;19.80;96.90
34891;DHT22;21103;51.358;12.412;2022-09-09T07:56:46;19.90;96.80
34891;DHT22;21103;51.358;12.412;2022-09-09T07:59:13;19.80;96.80
34891;DHT22;21103;51.358;12.412;2022-09-09T08:01:49;19.90;96.80
34891;DHT22;21103;51.358;12.412;2022-09-09T08:04:20;20.00;96.70
34891;DHT22;21103;51.358;12.412;2022-09-09T08:06:56;20.00;96.90
34891;DHT22;21103;51.358;12.412;2022-09-09T08:09:22;20.20;96.40
34891;DHT22;21103;51.358;12.412;2022-09-09T08:11:52;20.30;96.70
34891;DHT22;21103;51.358;12.412;2022-09-09T08:14:18;20.40;95.80
34891;DHT22;21103;51.358;12.412;2022-09-09T08:16:46;20.50;96.10
34891;DHT22;21103;51.358;12.412;2022-09-09T08:19:12;20.60;96.20
34891;DHT22;21103;51.358;12.412;2022-09-09T08:21:39;20.70;96.00
34891;DHT22;21103;51.358;12.412;2022-09-09T08:24:05;20.90;96.20
34891;DHT22;21103;51.358;12.412;2022-09-09T08:26:36;21.00;96.20
34891;DHT22;21103;51.358;12.412;2022-09-09T08:29:04;21.20;96.20
34891;DHT22;21103;51.358;12.412;2022-09-09T08:31:36;21.40;96.00
34891;DHT22;21103;51.358;12.412;2022-09-09T08:34:03;21.50;95.90
34891;DHT22;21103;51.358;12.412;2022-09-09T08:36:31;21.50;95.20
34891;DHT22;21103;51.358;12.412;2022-09-09T08:38:58;21.50;95.70
34891;DHT22;21103;51.358;12.412;2022-09-09T08:41:46;21.60;95.50
34891;DHT22;21103;51.358;12.412;2022-09-09T08:50:36;21.70;95.20
34891;DHT22;21103;51.358;12.412;2022-09-09T08:53:23;21.70;95.10
34891;DHT22;21103;51.358;12.412;2022-09-09T08:58:33;21.80;95.40
34891;DHT22;21103;51.358;12.412;2022-09-09T09:07:18;22.20;94.40
34891;DHT22;21103;51.358;12.412;2022-09-09T09:12:51;22.40;94.70
34891;DHT22;21103;51.358;12.412;2022-09-09T09:15:21;22.60;94.60
34891;DHT22;21103;51.358;12.412;2022-09-09T09:17:48;22.70;93.90
34891;DHT22;21103;51.358;12.412;2022-09-09T09:20:14;22.70;94.10
34891;DHT22;21103;51.358;12.412;2022-09-09T09:22:51;22.90;95.10
34891;DHT22;21103;51.358;12.412;2022-09-09T09:25:23;22.90;93.80
34891;DHT22;21103;51.358;12.412;2022-09-09T09:28:10;23.10;93.70
34891;DHT22;21103;51.358;12.412;2022-09-09T09:30:41;23.20;94.20
34891;DHT22;21103;51.358;12.412;2022-09-09T09:33:47;23.30;93.20
34891;DHT22;21103;51.358;12.412;2022-09-09T09:36:13;23.50;93.10
34891;DHT22;21103;51.358;12.412;2022-09-09T09:38:56;23.60;93.20
34891;DHT22;21103;51.358;12.412;2022-09-09T09:41:49;23.70;92.60
34891;DHT22;21103;51.358;12.412;2022-09-09T09:44:29;23.80;92.40
34891;DHT22;21103;51.358;12.412;2022-09-09T09:47:19;23.90;92.70
34891;DHT22;21103;51.358;12.412;2022-09-09T09:49:55;24.00;91.60
34891;DHT22;21103;51.358;12.412;2022-09-09T09:52:23;24.00;91.10
34891;DHT22;21103;51.358;12.412;2022-09-09T09:54:50;24.00;91.00
34891;DHT22;21103;51.358;12.412;2022-09-09T09:57:16;24.00;91.80
34891;DHT22;21103;51.358;12.412;2022-09-09T09:59:43;24.10;91.50
34891;DHT22;21103;51.358;12.412;2022-09-09T10:02:18;24.10;91.30
34891;DHT22;21103;51.358;12.412;2022-09-09T10:04:46;24.10;91.80
34891;DHT22;21103;51.358;12.412;2022-09-09T10:07:20;24.20;91.80
34891;DHT22;21103;51.358;12.412;2022-09-09T10:09:52;24.20;91.40
34891;DHT22;21103;51.358;12.412;2022-09-09T10:12:28;24.30;92.50
34891;DHT22;21103;51.358;12.412;2022-09-09T10:15:00;24.40;92.20
34891;DHT22;21103;51.358;12.412;2022-09-09T10:23:46;24.80;91.20
34891;DHT22;21103;51.358;12.412;2022-09-09T10:35:04;25.00;90.40
34891;DHT22;21103;51.358;12.412;2022-09-09T10:37:52;25.10;90.60
34891;DHT22;21103;51.358;12.412;2022-09-09T10:40:31;25.20;90.90
34891;DHT22;21103;51.358;12.412;2022-09-09T10:46:14;25.30;90.70
34891;DHT22;21103;51.358;12.412;2022-09-09T10:49:13;25.40;90.00
34891;DHT22;21103;51.358;12.412;2022-09-09T10:52:05;25.40;89.90
34891;DHT22;21103;51.358;12.412;2022-09-09T10:54:55;25.40;90.30
34891;DHT22;21103;51.358;12.412;2022-09-09T10:57:35;25.40;90.60
34891;DHT22;21103;51.358;12.412;2022-09-09T11:00:23;25.40;90.90
34891;DHT22;21103;51.358;12.412;2022-09-09T11:03:01;25.40;89.90
34891;DHT22;21103;51.358;12.412;2022-09-09T11:05:56;25.40;90.20
34891;DHT22;21103;51.358;12.412;2022-09-09T11:08:30;25.30;90.00
34891;DHT22;21103;51.358;12.412;2022-09-09T11:11:17;25.30;89.60
34891;DHT22;21103;51.358;12.412;2022-09-09T11:16:40;25.20;90.90
34891;DHT22;21103;51.358;12.412;2022-09-09T11:19:19;25.10;89.10
34891;DHT22;21103;51.358;12.412;2022-09-09T11:21:48;25.10;88.40
34891;DHT22;21103;51.358;12.412;2022-09-09T11:24:26;25.10;89.00
34891;DHT22;21103;51.358;12.412;2022-09-09T11:27:01;25.00;88.00
34891;DHT22;21103;51.358;12.412;2022-09-09T11:29:49;24.90;89.00
34891;DHT22;21103;51.358;12.412;2022-09-09T11:35:27;24.70;88.90
34891;DHT22;21103;51.358;12.412;2022-09-09T11:40:55;24.60;90.00
34891;DHT22;21103;51.358;12.412;2022-09-09T11:43:45;24.80;90.20
34891;DHT22;21103;51.358;12.412;2022-09-09T11:46:13;25.00;90.40
34891;DHT22;21103;51.358;12.412;2022-09-09T11:48:45;25.40;86.20
34891;DHT22;21103;51.358;12.412;2022-09-09T11:51:25;25.70;85.70
34891;DHT22;21103;51.358;12.412;2022-09-09T11:53:56;25.70;84.90
34891;DHT22;21103;51.358;12.412;2022-09-09T11:59:05;25.20;83.40
34891;DHT22;21103;51.358;12.412;2022-09-09T12:01:42;25.00;83.00
34891;DHT22;21103;51.358;12.412;2022-09-09T12:06:45;25.00;85.30
34891;DHT22;21103;51.358;12.412;2022-09-09T12:12:22;25.10;84.40
34891;DHT22;21103;51.358;12.412;2022-09-09T12:17:45;25.40;84.80
34891;DHT22;21103;51.358;12.412;2022-09-09T12:22:55;25.50;84.70
34891;DHT22;21103;51.358;12.412;2022-09-09T12:25:37;25.60;83.20
34891;DHT22;21103;51.358;12.412;2022-09-09T12:31:07;25.70;82.90
34891;DHT22;21103;51.358;12.412;2022-09-09T12:33:37;25.60;83.60
34891;DHT22;21103;51.358;12.412;2022-09-09T12:36:05;25.60;84.30
34891;DHT22;21103;51.358;12.412;2022-09-09T12:38:37;25.80;84.00
34891;DHT22;21103;51.358;12.412;2022-09-09T12:41:03;25.80;84.70
34891;DHT22;21103;51.358;12.412;2022-09-09T12:43:29;26.00;85.10
34891;DHT22;21103;51.358;12.412;2022-09-09T12:46:01;26.10;83.90
34891;DHT22;21103;51.358;12.412;2022-09-09T12:48:36;26.30;82.00
34891;DHT22;21103;51.358;12.412;2022-09-09T12:51:02;26.40;83.60
34891;DHT22;21103;51.358;12.412;2022-09-09T12:53:36;26.40;79.00
34891;DHT22;21103;51.358;12.412;2022-09-09T12:56:05;26.50;77.40
34891;DHT22;21103;51.358;12.412;2022-09-09T12:58:32;26.60;78.80
34891;DHT22;21103;51.358;12.412;2022-09-09T13:00:59;26.80;79.20
34891;DHT22;21103;51.358;12.412;2022-09-09T13:03:25;26.90;78.80
34891;DHT22;21103;51.358;12.412;2022-09-09T13:05:52;27.10;79.00
34891;DHT22;21103;51.358;12.412;2022-09-09T13:08:19;27.10;78.70
34891;DHT22;21103;51.358;12.412;2022-09-09T13:10:51;27.10;79.60
34891;DHT22;21103;51.358;12.412;2022-09-09T13:13:29;27.20;78.20
34891;DHT22;21103;51.358;12.412;2022-09-09T13:15:58;27.20;77.50
34891;DHT22;21103;51.358;12.412;2022-09-09T13:18:28;27.20;76.80
34891;DHT22;21103;51.358;12.412;2022-09-09T13:20:54;27.00;77.80
34891;DHT22;21103;51.358;12.412;2022-09-09T13:23:33;27.00;77.90
34891;DHT22;21103;51.358;12.412;2022-09-09T13:26:02;26.80;76.10
34891;DHT22;21103;51.358;12.412;2022-09-09T13:28:30;26.50;77.10
34891;DHT22;21103;51.358;12.412;2022-09-09T13:31:18;26.20;77.20
34891;DHT22;21103;51.358;12.412;2022-09-09T13:33:44;25.90;77.70
34891;DHT22;21103;51.358;12.412;2022-09-09T13:36:11;25.60;79.90
34891;DHT22;21103;51.358;12.412;2022-09-09T13:38:52;25.40;79.00
34891;DHT22;21103;51.358;12.412;2022-09-09T13:41:30;25.30;79.60
34891;DHT22;21103;51.358;12.412;2022-09-09T13:43:57;25.20;82.00
34891;DHT22;21103;51.358;12.412;2022-09-09T13:49:01;25.10;80.60
34891;DHT22;21103;51.358;12.412;2022-09-09T13:51:39;25.00;81.70
34891;DHT22;21103;51.358;12.412;2022-09-09T13:54:08;25.00;81.30
34891;DHT22;21103;51.358;12.412;2022-09-09T13:56:34;25.00;82.10
34891;DHT22;21103;51.358;12.412;2022-09-09T13:59:02;25.00;82.00
34891;DHT22;21103;51.358;12.412;2022-09-09T14:01:28;25.00;82.10
34891;DHT22;21103;51.358;12.412;2022-09-09T14:03:54;24.90;82.70
34891;DHT22;21103;51.358;12.412;2022-09-09T14:06:20;24.80;83.50
34891;DHT22;21103;51.358;12.412;2022-09-09T14:08:47;24.70;86.90
34891;DHT22;21103;51.358;12.412;2022-09-09T14:11:14;24.40;85.60
34891;DHT22;21103;51.358;12.412;2022-09-09T14:13:40;24.10;84.00
34891;DHT22;21103;51.358;12.412;2022-09-09T14:16:06;23.80;86.50
34891;DHT22;21103;51.358;12.412;2022-09-09T14:18:31;23.50;87.30
34891;DHT22;21103;51.358;12.412;2022-09-09T14:20:57;23.20;90.70
34891;DHT22;21103;51.358;12.412;2022-09-09T14:23:24;22.90;91.10
34891;DHT22;21103;51.358;12.412;2022-09-09T14:25:49;22.70;92.00
34891;DHT22;21103;51.358;12.412;2022-09-09T14:28:15;22.60;92.80
34891;DHT22;21103;51.358;12.412;2022-09-09T14:30:41;22.40;93.30
34891;DHT22;21103;51.358;12.412;2022-09-09T14:33:09;22.30;93.20
34891;DHT22;21103;51.358;12.412;2022-09-09T14:35:35;22.20;93.90
34891;DHT22;21103;51.358;12.412;2022-09-09T14:38:02;22.20;94.90
34891;DHT22;21103;51.358;12.412;2022-09-09T14:40:29;22.20;95.70
34891;DHT22;21103;51.358;12.412;2022-09-09T14:42:54;22.20;95.70
34891;DHT22;21103;51.358;12.412;2022-09-09T14:45:22;22.20;96.30
34891;DHT22;21103;51.358;12.412;2022-09-09T14:47:49;22.20;96.60
34891;DHT22;21103;51.358;12.412;2022-09-09T14:50:14;22.30;96.40
34891;DHT22;21103;51.358;12.412;2022-09-09T14:52:40;22.30;96.70
34891;DHT22;21103;51.358;12.412;2022-09-09T14:55:06;22.30;96.80
34891;DHT22;21103;51.358;12.412;2022-09-09T14:57:32;22.30;97.20
34891;DHT22;21103;51.358;12.412;2022-09-09T14:59:57;22.30;97.20
34891;DHT22;21103;51.358;12.412;2022-09-09T15:02:23;22.40;97.00
34891;DHT22;21103;51.358;12.412;2022-09-09T15:04:49;22.40;96.90
34891;DHT22;21103;51.358;12.412;2022-09-09T15:07:15;22.50;96.30
34891;DHT22;21103;51.358;12.412;2022-09-09T15:09:42;22.70;96.30
34891;DHT22;21103;51.358;12.412;2022-09-09T15:12:07;22.90;95.30
34891;DHT22;21103;51.358;12.412;2022-09-09T15:14:33;23.20;95.00
34891;DHT22;21103;51.358;12.412;2022-09-09T15:16:59;23.50;93.10
34891;DHT22;21103;51.358;12.412;2022-09-09T15:19:24;23.80;93.10
34891;DHT22;21103;51.358;12.412;2022-09-09T15:21:50;24.00;92.50
34891;DHT22;21103;51.358;12.412;2022-09-09T15:24:15;24.10;92.50
34891;DHT22;21103;51.358;12.412;2022-09-09T15:26:41;24.20;91.20
34891;DHT22;21103;51.358;12.412;2022-09-09T15:29:07;24.10;91.40
34891;DHT22;21103;51.358;12.412;2022-09-09T15:31:33;24.10;91.20
34891;DHT22;21103;51.358;12.412;2022-09-09T15:34:00;24.10;91.10
34891;DHT22;21103;51.358;12.412;2022-09-09T15:36:31;24.10;90.90
34891;DHT22;21103;51.358;12.412;2022-09-09T15:38:58;24.10;91.10
34891;DHT22;21103;51.358;12.412;2022-09-09T15:41:25;24.10;90.10
34891;DHT22;21103;51.358;12.412;2022-09-09T15:43:54;24.10;90.40
34891;DHT22;21103;51.358;12.412;2022-09-09T15:49:18;24.10;90.50
34891;DHT22;21103;51.358;12.412;2022-09-09T15:51:47;24.20;89.10
34891;DHT22;21103;51.358;12.412;2022-09-09T15:54:17;24.10;89.20
34891;DHT22;21103;51.358;12.412;2022-09-09T15:56:44;24.10;88.80
34891;DHT22;21103;51.358;12.412;2022-09-09T15:59:10;24.10;88.30
34891;DHT22;21103;51.358;12.412;2022-09-09T16:01:36;24.10;88.60
34891;DHT22;21103;51.358;12.412;2022-09-09T16:04:03;24.00;87.80
34891;DHT22;21103;51.358;12.412;2022-09-09T16:06:29;23.90;88.20
34891;DHT22;21103;51.358;12.412;2022-09-09T16:08:56;23.90;87.80
34891;DHT22;21103;51.358;12.412;2022-09-09T16:11:25;23.80;87.70
34891;DHT22;21103;51.358;12.412;2022-09-09T16:13:52;23.80;88.90
34891;DHT22;21103;51.358;12.412;2022-09-09T16:16:20;23.80;89.40
34891;DHT22;21103;51.358;12.412;2022-09-09T16:18:48;23.70;89.00
34891;DHT22;21103;51.358;12.412;2022-09-09T16:21:35;23.70;88.90
34891;DHT22;21103;51.358;12.412;2022-09-09T16:24:03;23.70;88.00
34891;DHT22;21103;51.358;12.412;2022-09-09T16:26:32;23.60;88.10
34891;DHT22;21103;51.358;12.412;2022-09-09T16:28:59;23.60;87.80
34891;DHT22;21103;51.358;12.412;2022-09-09T16:31:26;23.60;88.20
34891;DHT22;21103;51.358;12.412;2022-09-09T16:33:52;23.60;87.40
34891;DHT22;21103;51.358;12.412;2022-09-09T16:36:20;23.50;87.20
34891;DHT22;21103;51.358;12.412;2022-09-09T16:38:46;23.50;87.70
34891;DHT22;21103;51.358;12.412;2022-09-09T16:41:13;23.30;87.70
34891;DHT22;21103;51.358;12.412;2022-09-09T16:43:40;23.30;87.50
34891;DHT22;21103;51.358;12.412;2022-09-09T16:46:14;23.20;87.80
34891;DHT22;21103;51.358;12.412;2022-09-09T16:48:40;23.10;89.00
34891;DHT22;21103;51.358;12.412;2022-09-09T16:51:09;23.10;89.00
34891;DHT22;21103;51.358;12.412;2022-09-09T16:53:36;23.00;89.30
34891;DHT22;21103;51.358;12.412;2022-09-09T16:56:07;22.90;88.60
34891;DHT22;21103;51.358;12.412;2022-09-09T16:58:33;22.80;89.30
34891;DHT22;21103;51.358;12.412;2022-09-09T17:01:03;22.70;89.50